sensor_id;sensor_type;location;lat;lon;timestamp;pressure;altitude;pressure_sealevel;temperature;humidity
41078;BME280;26823;42.662;23.352;2024-02-21T00:01:42;157491.44;;;5.29;86.78
41078;BME280;26823;42.662;23.352;2024-02-21T00:04:08;157512.94;;;5.37;86.80
41078;BME280;26823;42.662;23.352;2024-02-21T00:06:33;157492.81;;;5.30;86.36
41078;BME280;26823;42.662;23.352;2024-02-21T00:08:59;157520.97;;;5.41;86.56
41078;BME280;26823;42.662;23.352;2024-02-21T00:11:24;157516.94;;;5.39;86.58
41078;BME280;26823;42.662;23.352;2024-02-21T00:13:50;157524.97;;;5.42;86.45
41078;BME280;26823;42.662;23.352;2024-02-21T00:16:18;157529.03;;;5.44;86.39
41078;BME280;26823;42.662;23.352;2024-02-21T00:18:44;157520.97;;;5.41;86.00
41078;BME280;26823;42.662;23.352;2024-02-21T00:21:09;157500.84;;;5.33;86.41
41078;BME280;26823;42.662;23.352;2024-02-21T00:23:34;157504.84;;;5.34;86.49
41078;BME280;26823;42.662;23.352;2024-02-21T00:26:00;157518.28;;;5.39;86.42
41078;BME280;26823;42.662;23.352;2024-02-21T00:28:25;157524.97;;;5.42;86.43
41078;BME280;26823;42.662;23.352;2024-02-21T00:30:51;157512.94;;;5.37;86.34
41078;BME280;26823;42.662;23.352;2024-02-21T00:33:18;157495.50;;;5.31;86.20
41078;BME280;26823;42.662;23.352;2024-02-21T00:35:44;157498.13;;;5.32;86.15
41078;BME280;26823;42.662;23.352;2024-02-21T00:38:09;157507.53;;;5.35;85.89
41078;BME280;26823;42.662;23.352;2024-02-21T00:40:35;157508.91;;;5.36;86.01
41078;BME280;26823;42.662;23.352;2024-02-21T00:43:00;157510.22;;;5.36;86.29
41078;BME280;26823;42.662;23.352;2024-02-21T00:45:26;157504.84;;;5.34;86.14
41078;BME280;26823;42.662;23.352;2024-02-21T00:47:51;157504.84;;;5.34;86.46
41078;BME280;26823;42.662;23.352;2024-02-21T00:50:17;157492.81;;;5.30;86.55
41078;BME280;26823;42.662;23.352;2024-02-21T00:52:43;157490.09;;;5.29;86.82
41078;BME280;26823;42.662;23.352;2024-02-21T00:55:08;157444.47;;;5.11;87.30
41078;BME280;26823;42.662;23.352;2024-02-21T00:57:34;157486.09;;;5.27;87.12
41078;BME280;26823;42.662;23.352;2024-02-21T01:00:00;157496.81;;;5.31;86.75
41078;BME280;26823;42.662;23.352;2024-02-21T01:02:26;157469.97;;;5.21;86.65
41078;BME280;26823;42.662;23.352;2024-02-21T01:04:51;157469.97;;;5.21;87.19
41078;BME280;26823;42.662;23.352;2024-02-21T01:07:16;157478.00;;;5.24;87.34
41078;BME280;26823;42.662;23.352;2024-02-21T01:09:42;157475.31;;;5.23;87.10
41078;BME280;26823;42.662;23.352;2024-02-21T01:12:07;157479.38;;;5.25;87.16
41078;BME280;26823;42.662;23.352;2024-02-21T01:14:33;157479.38;;;5.25;87.24
41078;BME280;26823;42.662;23.352;2024-02-21T01:16:58;157494.13;;;5.30;87.13
41078;BME280;26823;42.662;23.352;2024-02-21T01:19:23;157499.50;;;5.32;86.63
41078;BME280;26823;42.662;23.352;2024-02-21T01:21:49;157504.84;;;5.34;86.74
41078;BME280;26823;42.662;23.352;2024-02-21T01:24:14;157511.56;;;5.37;86.37
41078;BME280;26823;42.662;23.352;2024-02-21T01:26:41;157486.09;;;5.27;86.78
41078;BME280;26823;42.662;23.352;2024-02-21T01:29:06;157518.28;;;5.39;86.54
41078;BME280;26823;42.662;23.352;2024-02-21T01:31:32;157522.34;;;5.41;86.13
41078;BME280;26823;42.662;23.352;2024-02-21T01:33:57;157516.94;;;5.39;86.13
41078;BME280;26823;42.662;23.352;2024-02-21T01:36:23;157514.25;;;5.38;86.09
41078;BME280;26823;42.662;23.352;2024-02-21T01:38:48;157502.19;;;5.33;85.97
41078;BME280;26823;42.662;23.352;2024-02-21T01:41:14;157486.09;;;5.27;86.18
41078;BME280;26823;42.662;23.352;2024-02-21T01:43:39;157478.00;;;5.24;86.18
41078;BME280;26823;42.662;23.352;2024-02-21T01:46:05;157490.09;;;5.29;86.16
41078;BME280;26823;42.662;23.352;2024-02-21T01:48:30;157464.59;;;5.19;86.02
41078;BME280;26823;42.662;23.352;2024-02-21T01:50:56;157484.72;;;5.27;86.37
41078;BME280;26823;42.662;23.352;2024-02-21T01:53:30;157486.09;;;5.27;86.63
41078;BME280;26823;42.662;23.352;2024-02-21T01:55:58;157483.41;;;5.26;86.24
41078;BME280;26823;42.662;23.352;2024-02-21T01:58:24;157480.69;;;5.25;86.50
41078;BME280;26823;42.662;23.352;2024-02-21T02:00:50;157440.44;;;5.10;86.29
41078;BME280;26823;42.662;23.352;2024-02-21T02:03:15;157487.41;;;5.28;85.97
41078;BME280;26823;42.662;23.352;2024-02-21T02:05:47;157476.69;;;5.23;85.64
41078;BME280;26823;42.662;23.352;2024-02-21T02:08:14;157463.28;;;5.18;85.60
41078;BME280;26823;42.662;23.352;2024-02-21T02:10:40;157482.03;;;5.26;84.99
41078;BME280;26823;42.662;23.352;2024-02-21T02:13:07;157491.44;;;5.29;85.43
41078;BME280;26823;42.662;23.352;2024-02-21T02:18:04;157476.69;;;5.23;84.85
41078;BME280;26823;42.662;23.352;2024-02-21T02:20:30;157490.09;;;5.29;84.51
41078;BME280;26823;42.662;23.352;2024-02-21T02:22:56;157465.97;;;5.19;84.10
41078;BME280;26823;42.662;23.352;2024-02-21T02:25:23;157506.22;;;5.35;84.14
41078;BME280;26823;42.662;23.352;2024-02-21T02:27:48;157488.78;;;5.28;84.31
41078;BME280;26823;42.662;23.352;2024-02-21T02:30:14;157498.13;;;5.32;84.52
41078;BME280;26823;42.662;23.352;2024-02-21T02:32:44;157504.84;;;5.34;84.37
41078;BME280;26823;42.662;23.352;2024-02-21T02:35:09;157507.53;;;5.35;85.08
41078;BME280;26823;42.662;23.352;2024-02-21T02:37:35;157482.03;;;5.26;84.39
41078;BME280;26823;42.662;23.352;2024-02-21T02:40:00;157512.94;;;5.37;84.74
41078;BME280;26823;42.662;23.352;2024-02-21T02:42:25;157507.53;;;5.35;84.43
41078;BME280;26823;42.662;23.352;2024-02-21T02:44:51;157475.31;;;5.23;83.96
41078;BME280;26823;42.662;23.352;2024-02-21T02:47:16;157522.34;;;5.41;84.20
41078;BME280;26823;42.662;23.352;2024-02-21T02:49:42;157500.84;;;5.33;84.07
41078;BME280;26823;42.662;23.352;2024-02-21T02:52:07;157506.22;;;5.35;84.18
41078;BME280;26823;42.662;23.352;2024-02-21T02:54:33;157499.50;;;5.32;84.19
41078;BME280;26823;42.662;23.352;2024-02-21T02:56:59;157507.53;;;5.35;84.82
41078;BME280;26823;42.662;23.352;2024-02-21T02:59:25;157502.19;;;5.33;84.77
41078;BME280;26823;42.662;23.352;2024-02-21T03:01:50;157506.22;;;5.35;84.72
41078;BME280;26823;42.662;23.352;2024-02-21T03:04:16;157512.94;;;5.37;85.12
41078;BME280;26823;42.662;23.352;2024-02-21T03:06:41;157516.94;;;5.39;85.63
41078;BME280;26823;42.662;23.352;2024-02-21T03:09:07;157511.56;;;5.37;85.14
41078;BME280;26823;42.662;23.352;2024-02-21T03:11:34;157529.03;;;5.44;85.00
41078;BME280;26823;42.662;23.352;2024-02-21T03:13:59;157534.38;;;5.46;84.67
41078;BME280;26823;42.662;23.352;2024-02-21T03:16:25;157526.34;;;5.43;84.64
41078;BME280;26823;42.662;23.352;2024-02-21T03:18:50;157507.53;;;5.35;84.45
41078;BME280;26823;42.662;23.352;2024-02-21T03:21:16;157545.16;;;5.50;84.40
41078;BME280;26823;42.662;23.352;2024-02-21T03:23:41;157545.16;;;5.50;84.60
41078;BME280;26823;42.662;23.352;2024-02-21T03:26:07;157551.88;;;5.52;84.33
41078;BME280;26823;42.662;23.352;2024-02-21T03:28:32;157539.78;;;5.48;83.91
41078;BME280;26823;42.662;23.352;2024-02-21T03:30:58;157550.50;;;5.52;83.89
41078;BME280;26823;42.662;23.352;2024-02-21T03:33:23;157554.53;;;5.53;83.91
41078;BME280;26823;42.662;23.352;2024-02-21T03:35:49;157557.22;;;5.54;83.81
41078;BME280;26823;42.662;23.352;2024-02-21T03:38:14;157546.50;;;5.50;83.98
41078;BME280;26823;42.662;23.352;2024-02-21T03:40:39;157545.16;;;5.50;83.69
41078;BME280;26823;42.662;23.352;2024-02-21T03:43:05;157547.81;;;5.51;83.68
41078;BME280;26823;42.662;23.352;2024-02-21T03:45:30;157520.97;;;5.41;83.60
41078;BME280;26823;42.662;23.352;2024-02-21T03:47:56;157543.78;;;5.49;83.72
41078;BME280;26823;42.662;23.352;2024-02-21T03:50:21;157542.47;;;5.49;83.62
41078;BME280;26823;42.662;23.352;2024-02-21T03:52:46;157527.69;;;5.43;83.17
41078;BME280;26823;42.662;23.352;2024-02-21T03:55:12;157566.63;;;5.58;83.47
41078;BME280;26823;42.662;23.352;2024-02-21T03:57:41;157566.63;;;5.58;83.15
41078;BME280;26823;42.662;23.352;2024-02-21T04:00:06;157573.34;;;5.61;83.24
41078;BME280;26823;42.662;23.352;2024-02-21T04:02:36;157562.59;;;5.57;83.57
41078;BME280;26823;42.662;23.352;2024-02-21T04:05:01;157516.94;;;5.39;83.62
41078;BME280;26823;42.662;23.352;2024-02-21T04:07:27;157563.94;;;5.57;83.64
41078;BME280;26823;42.662;23.352;2024-02-21T04:09:52;157562.59;;;5.57;83.24
41078;BME280;26823;42.662;23.352;2024-02-21T04:12:18;157563.94;;;5.57;83.45
41078;BME280;26823;42.662;23.352;2024-02-21T04:14:43;157547.81;;;5.51;83.79
41078;BME280;26823;42.662;23.352;2024-02-21T04:17:09;157566.63;;;5.58;83.15
41078;BME280;26823;42.662;23.352;2024-02-21T04:19:34;157539.78;;;5.48;82.88
41078;BME280;26823;42.662;23.352;2024-02-21T04:21:59;157547.81;;;5.51;83.27
41078;BME280;26823;42.662;23.352;2024-02-21T04:24:25;157546.50;;;5.50;83.56
41078;BME280;26823;42.662;23.352;2024-02-21T04:26:50;157553.19;;;5.53;83.18
41078;BME280;26823;42.662;23.352;2024-02-21T04:29:16;157550.50;;;5.52;82.99
41078;BME280;26823;42.662;23.352;2024-02-21T04:31:41;157494.13;;;5.30;83.08
41078;BME280;26823;42.662;23.352;2024-02-21T04:34:07;157526.34;;;5.43;83.22
41078;BME280;26823;42.662;23.352;2024-02-21T04:36:32;157515.63;;;5.38;83.28
41078;BME280;26823;42.662;23.352;2024-02-21T04:38:58;157510.22;;;5.36;83.00
41078;BME280;26823;42.662;23.352;2024-02-21T04:41:24;157499.50;;;5.32;83.32
41078;BME280;26823;42.662;23.352;2024-02-21T04:43:49;157486.09;;;5.27;83.35
41078;BME280;26823;42.662;23.352;2024-02-21T04:46:15;157486.09;;;5.27;83.70
41078;BME280;26823;42.662;23.352;2024-02-21T04:48:42;157476.69;;;5.23;83.95
41078;BME280;26823;42.662;23.352;2024-02-21T04:51:08;157433.72;;;5.07;83.96
41078;BME280;26823;42.662;23.352;2024-02-21T04:53:35;157469.97;;;5.21;83.75
41078;BME280;26823;42.662;23.352;2024-02-21T04:56:01;157464.59;;;5.19;83.79
41078;BME280;26823;42.662;23.352;2024-02-21T04:58:26;157427.03;;;5.04;84.14
41078;BME280;26823;42.662;23.352;2024-02-21T05:00:52;157448.47;;;5.13;83.89
41078;BME280;26823;42.662;23.352;2024-02-21T05:03:18;157412.22;;;4.99;84.34
41078;BME280;26823;42.662;23.352;2024-02-21T05:05:44;157441.75;;;5.10;83.71
41078;BME280;26823;42.662;23.352;2024-02-21T05:08:09;157416.31;;;5.00;84.32
41078;BME280;26823;42.662;23.352;2024-02-21T05:10:35;157380.06;;;4.86;84.58
41078;BME280;26823;42.662;23.352;2024-02-21T05:13:02;157398.81;;;4.94;84.47
41078;BME280;26823;42.662;23.352;2024-02-21T05:15:27;157421.63;;;5.02;84.90
41078;BME280;26823;42.662;23.352;2024-02-21T05:17:53;157436.44;;;5.08;84.64
41078;BME280;26823;42.662;23.352;2024-02-21T05:20:18;157421.63;;;5.02;84.89
41078;BME280;26823;42.662;23.352;2024-02-21T05:22:43;157410.91;;;4.98;84.93
41078;BME280;26823;42.662;23.352;2024-02-21T05:25:09;157424.34;;;5.03;85.00
41078;BME280;26823;42.662;23.352;2024-02-21T05:27:34;157414.94;;;5.00;85.50
41078;BME280;26823;42.662;23.352;2024-02-21T05:30:01;157425.66;;;5.04;85.41
41078;BME280;26823;42.662;23.352;2024-02-21T05:32:26;157425.66;;;5.04;85.42
41078;BME280;26823;42.662;23.352;2024-02-21T05:34:52;157441.75;;;5.10;85.19
41078;BME280;26823;42.662;23.352;2024-02-21T05:37:17;157444.47;;;5.11;85.05
41078;BME280;26823;42.662;23.352;2024-02-21T05:39:43;157445.78;;;5.12;84.96
41078;BME280;26823;42.662;23.352;2024-02-21T05:42:09;157449.84;;;5.13;84.72
41078;BME280;26823;42.662;23.352;2024-02-21T05:44:34;157467.28;;;5.20;84.71
41078;BME280;26823;42.662;23.352;2024-02-21T05:47:00;157393.47;;;4.92;84.69
41078;BME280;26823;42.662;23.352;2024-02-21T05:49:25;157471.31;;;5.21;84.42
41078;BME280;26823;42.662;23.352;2024-02-21T05:51:50;157487.41;;;5.28;85.00
41078;BME280;26823;42.662;23.352;2024-02-21T05:54:16;157440.44;;;5.10;84.22
41078;BME280;26823;42.662;23.352;2024-02-21T05:56:45;157504.84;;;5.34;84.14
41078;BME280;26823;42.662;23.352;2024-02-21T05:59:11;157529.03;;;5.44;83.54
41078;BME280;26823;42.662;23.352;2024-02-21T06:01:37;157545.16;;;5.50;82.78
41078;BME280;26823;42.662;23.352;2024-02-21T06:04:02;157550.50;;;5.52;82.89
41078;BME280;26823;42.662;23.352;2024-02-21T06:06:27;157562.59;;;5.57;82.42
41078;BME280;26823;42.662;23.352;2024-02-21T06:08:53;157502.19;;;5.33;82.02
41078;BME280;26823;42.662;23.352;2024-02-21T06:11:18;157538.47;;;5.47;82.09
41078;BME280;26823;42.662;23.352;2024-02-21T06:13:44;157531.75;;;5.45;81.74
41078;BME280;26823;42.662;23.352;2024-02-21T06:16:09;157572.00;;;5.60;81.34
41078;BME280;26823;42.662;23.352;2024-02-21T06:18:35;157655.25;;;5.92;80.75
41078;BME280;26823;42.662;23.352;2024-02-21T06:21:02;157680.84;;;6.02;79.98
41078;BME280;26823;42.662;23.352;2024-02-21T06:23:31;157752.00;;;6.29;78.81
41078;BME280;26823;42.662;23.352;2024-02-21T06:25:56;157795.00;;;6.46;77.60
41078;BME280;26823;42.662;23.352;2024-02-21T06:28:22;157827.25;;;6.58;76.89
41078;BME280;26823;42.662;23.352;2024-02-21T06:30:47;157897.13;;;6.85;76.37
41078;BME280;26823;42.662;23.352;2024-02-21T06:33:12;157885.06;;;6.80;75.00
41078;BME280;26823;42.662;23.352;2024-02-21T06:35:39;158093.41;;;7.60;74.47
41078;BME280;26823;42.662;23.352;2024-02-21T06:38:06;158471.47;;;9.05;69.75
41078;BME280;26823;42.662;23.352;2024-02-21T06:40:32;158637.06;;;9.69;63.03
41078;BME280;26823;42.662;23.352;2024-02-21T06:43:04;158577.81;;;9.46;62.92
41078;BME280;26823;42.662;23.352;2024-02-21T06:45:48;158510.53;;;9.20;63.42
41078;BME280;26823;42.662;23.352;2024-02-21T06:48:16;158429.78;;;8.89;64.58
41078;BME280;26823;42.662;23.352;2024-02-21T06:50:42;158363.84;;;8.64;66.28
41078;BME280;26823;42.662;23.352;2024-02-21T06:53:07;158365.19;;;8.64;65.46
41078;BME280;26823;42.662;23.352;2024-02-21T06:55:33;158319.41;;;8.47;66.59
41078;BME280;26823;42.662;23.352;2024-02-21T06:57:58;158291.13;;;8.36;66.58
41078;BME280;26823;42.662;23.352;2024-02-21T07:00:23;158301.88;;;8.40;66.87
41078;BME280;26823;42.662;23.352;2024-02-21T07:02:50;158293.78;;;8.37;67.73
41078;BME280;26823;42.662;23.352;2024-02-21T07:05:16;158287.06;;;8.35;67.33
41078;BME280;26823;42.662;23.352;2024-02-21T07:07:41;158293.78;;;8.37;68.04
41078;BME280;26823;42.662;23.352;2024-02-21T07:10:07;158244.00;;;8.18;67.93
41078;BME280;26823;42.662;23.352;2024-02-21T07:12:33;158270.97;;;8.28;67.37
41078;BME280;26823;42.662;23.352;2024-02-21T07:15:00;158269.59;;;8.28;68.28
41078;BME280;26823;42.662;23.352;2024-02-21T07:17:25;158195.63;;;7.99;69.38
41078;BME280;26823;42.662;23.352;2024-02-21T07:19:51;158188.91;;;7.97;69.70
41078;BME280;26823;42.662;23.352;2024-02-21T07:22:16;158180.81;;;7.94;69.80
41078;BME280;26823;42.662;23.352;2024-02-21T07:24:42;158176.78;;;7.92;69.72
41078;BME280;26823;42.662;23.352;2024-02-21T07:27:07;158172.75;;;7.91;69.98
41078;BME280;26823;42.662;23.352;2024-02-21T07:29:32;158133.75;;;7.76;70.45
41078;BME280;26823;42.662;23.352;2024-02-21T07:31:58;158157.94;;;7.85;71.02
41078;BME280;26823;42.662;23.352;2024-02-21T07:34:23;158139.13;;;7.78;70.44
41078;BME280;26823;42.662;23.352;2024-02-21T07:36:49;158127.03;;;7.73;70.90
41078;BME280;26823;42.662;23.352;2024-02-21T07:39:14;158140.47;;;7.78;70.91
41078;BME280;26823;42.662;23.352;2024-02-21T07:41:41;158136.44;;;7.77;71.47
41078;BME280;26823;42.662;23.352;2024-02-21T07:44:09;158148.50;;;7.81;71.38
41078;BME280;26823;42.662;23.352;2024-02-21T07:46:34;158132.41;;;7.75;71.00
41078;BME280;26823;42.662;23.352;2024-02-21T07:49:00;158112.19;;;7.67;71.55
41078;BME280;26823;42.662;23.352;2024-02-21T07:51:28;158140.47;;;7.78;71.87
41078;BME280;26823;42.662;23.352;2024-02-21T07:53:53;158152.59;;;7.83;71.22
41078;BME280;26823;42.662;23.352;2024-02-21T07:56:19;158157.94;;;7.85;70.86
41078;BME280;26823;42.662;23.352;2024-02-21T07:58:44;158163.34;;;7.87;70.11
41078;BME280;26823;42.662;23.352;2024-02-21T08:01:10;158159.31;;;7.86;70.29
41078;BME280;26823;42.662;23.352;2024-02-21T08:03:36;158160.63;;;7.86;70.86
41078;BME280;26823;42.662;23.352;2024-02-21T08:06:02;158180.81;;;7.94;70.50
41078;BME280;26823;42.662;23.352;2024-02-21T08:08:28;158127.03;;;7.73;71.55
41078;BME280;26823;42.662;23.352;2024-02-21T08:10:53;158155.25;;;7.84;70.74
41078;BME280;26823;42.662;23.352;2024-02-21T08:13:19;158128.34;;;7.74;70.56
41078;BME280;26823;42.662;23.352;2024-02-21T08:15:45;158203.69;;;8.03;70.48
41078;BME280;26823;42.662;23.352;2024-02-21T08:18:11;158222.53;;;8.10;70.45
41078;BME280;26823;42.662;23.352;2024-02-21T08:20:36;158086.69;;;7.58;72.17
41078;BME280;26823;42.662;23.352;2024-02-21T08:23:02;158238.66;;;8.16;72.89
41078;BME280;26823;42.662;23.352;2024-02-21T08:25:27;158260.16;;;8.24;70.85
41078;BME280;26823;42.662;23.352;2024-02-21T08:27:58;158332.88;;;8.52;68.96
41078;BME280;26823;42.662;23.352;2024-02-21T08:30:24;158428.41;;;8.89;66.54
41078;BME280;26823;42.662;23.352;2024-02-21T08:32:49;158684.25;;;9.87;63.86
41078;BME280;26823;42.662;23.352;2024-02-21T08:35:15;158791.97;;;10.28;61.29
41078;BME280;26823;42.662;23.352;2024-02-21T08:37:40;158852.63;;;10.51;59.61
41078;BME280;26823;42.662;23.352;2024-02-21T08:40:08;158845.91;;;10.49;59.66
41078;BME280;26823;42.662;23.352;2024-02-21T08:42:35;158863.44;;;10.55;58.58
41078;BME280;26823;42.662;23.352;2024-02-21T08:45:02;158854.00;;;10.52;58.44
41078;BME280;26823;42.662;23.352;2024-02-21T08:47:27;158862.06;;;10.55;57.31
41078;BME280;26823;42.662;23.352;2024-02-21T08:49:52;158871.50;;;10.58;62.33
41078;BME280;26823;42.662;23.352;2024-02-21T08:52:18;158855.34;;;10.52;57.08
41078;BME280;26823;42.662;23.352;2024-02-21T08:54:43;158894.44;;;10.67;58.35
41078;BME280;26823;42.662;23.352;2024-02-21T08:57:09;158906.56;;;10.72;56.00
41078;BME280;26823;42.662;23.352;2024-02-21T08:59:36;158965.88;;;10.95;56.51
41078;BME280;26823;42.662;23.352;2024-02-21T09:02:03;159046.72;;;11.25;56.07
41078;BME280;26823;42.662;23.352;2024-02-21T09:04:29;159137.03;;;11.60;55.32
41078;BME280;26823;42.662;23.352;2024-02-21T09:06:54;159204.50;;;11.86;54.80
41078;BME280;26823;42.662;23.352;2024-02-21T09:09:20;159193.66;;;11.82;53.83
41078;BME280;26823;42.662;23.352;2024-02-21T09:11:46;159222.00;;;11.93;57.28
41078;BME280;26823;42.662;23.352;2024-02-21T09:14:12;159154.59;;;11.67;55.90
41078;BME280;26823;42.662;23.352;2024-02-21T09:16:37;159193.66;;;11.82;54.24
41078;BME280;26823;42.662;23.352;2024-02-21T09:19:22;159201.78;;;11.85;51.94
41078;BME280;26823;42.662;23.352;2024-02-21T09:21:47;159146.47;;;11.64;51.55
41078;BME280;26823;42.662;23.352;2024-02-21T09:24:14;159123.56;;;11.55;51.98
41078;BME280;26823;42.662;23.352;2024-02-21T09:26:40;159050.75;;;11.27;55.02
41078;BME280;26823;42.662;23.352;2024-02-21T09:29:05;159133.00;;;11.58;54.25
41078;BME280;26823;42.662;23.352;2024-02-21T09:31:31;159157.25;;;11.68;53.61
41078;BME280;26823;42.662;23.352;2024-02-21T09:33:56;159192.34;;;11.81;52.96
41078;BME280;26823;42.662;23.352;2024-02-21T09:36:24;159130.28;;;11.57;52.12
41078;BME280;26823;42.662;23.352;2024-02-21T09:38:49;159100.63;;;11.46;54.00
41078;BME280;26823;42.662;23.352;2024-02-21T09:41:15;159112.78;;;11.51;54.01
41078;BME280;26823;42.662;23.352;2024-02-21T09:43:43;159149.19;;;11.65;53.52
41078;BME280;26823;42.662;23.352;2024-02-21T09:46:16;159134.38;;;11.59;54.10
41078;BME280;26823;42.662;23.352;2024-02-21T09:51:16;159084.44;;;11.40;56.34
41078;BME280;26823;42.662;23.352;2024-02-21T09:53:43;159081.78;;;11.39;54.46
41078;BME280;26823;42.662;23.352;2024-02-21T09:56:10;159122.22;;;11.54;53.89
41078;BME280;26823;42.662;23.352;2024-02-21T09:58:36;159118.19;;;11.53;52.87
41078;BME280;26823;42.662;23.352;2024-02-21T10:01:02;159141.13;;;11.62;53.38
41078;BME280;26823;42.662;23.352;2024-02-21T10:03:32;159197.75;;;11.83;52.52
41078;BME280;26823;42.662;23.352;2024-02-21T10:05:58;159217.97;;;11.91;51.25
41078;BME280;26823;42.662;23.352;2024-02-21T10:08:26;159209.84;;;11.88;51.81
41078;BME280;26823;42.662;23.352;2024-02-21T10:10:51;159262.50;;;12.08;51.72
41078;BME280;26823;42.662;23.352;2024-02-21T10:13:25;159292.19;;;12.19;49.33
41078;BME280;26823;42.662;23.352;2024-02-21T10:16:04;159285.44;;;12.17;49.65
41078;BME280;26823;42.662;23.352;2024-02-21T10:18:30;159355.59;;;12.44;50.01
41078;BME280;26823;42.662;23.352;2024-02-21T10:23:26;159393.38;;;12.58;49.55
41078;BME280;26823;42.662;23.352;2024-02-21T10:25:52;159448.69;;;12.79;47.79
41078;BME280;26823;42.662;23.352;2024-02-21T10:28:17;159362.31;;;12.46;48.29
41078;BME280;26823;42.662;23.352;2024-02-21T10:30:51;159367.75;;;12.48;48.85
41078;BME280;26823;42.662;23.352;2024-02-21T10:33:17;159439.28;;;12.76;47.06
41078;BME280;26823;42.662;23.352;2024-02-21T10:35:46;159405.50;;;12.63;47.17
41078;BME280;26823;42.662;23.352;2024-02-21T10:38:12;159429.81;;;12.72;45.97
41078;BME280;26823;42.662;23.352;2024-02-21T10:40:38;159441.94;;;12.77;45.42
41078;BME280;26823;42.662;23.352;2024-02-21T10:43:05;159416.34;;;12.67;45.51
41078;BME280;26823;42.662;23.352;2024-02-21T10:45:36;159474.31;;;12.89;45.15
41078;BME280;26823;42.662;23.352;2024-02-21T10:48:12;159541.84;;;13.15;45.00
41078;BME280;26823;42.662;23.352;2024-02-21T10:50:57;159482.47;;;12.92;46.11
41078;BME280;26823;42.662;23.352;2024-02-21T10:53:44;159620.16;;;13.45;43.96
41078;BME280;26823;42.662;23.352;2024-02-21T10:56:32;159734.94;;;13.89;43.64
41078;BME280;26823;42.662;23.352;2024-02-21T10:59:02;159743.03;;;13.92;41.80
41078;BME280;26823;42.662;23.352;2024-02-21T11:01:28;159876.75;;;14.43;41.79
41078;BME280;26823;42.662;23.352;2024-02-21T11:03:59;159993.00;;;14.87;41.88
41078;BME280;26823;42.662;23.352;2024-02-21T11:06:27;160159.22;;;15.51;39.26
41078;BME280;26823;42.662;23.352;2024-02-21T11:09:08;160274.16;;;15.94;37.49
41078;BME280;26823;42.662;23.352;2024-02-21T11:11:35;160294.44;;;16.02;38.35
41078;BME280;26823;42.662;23.352;2024-02-21T11:14:17;160410.75;;;16.46;38.67
41078;BME280;26823;42.662;23.352;2024-02-21T11:16:43;160444.59;;;16.59;36.54
41078;BME280;26823;42.662;23.352;2024-02-21T11:19:28;160364.81;;;16.29;36.79
41078;BME280;26823;42.662;23.352;2024-02-21T11:21:55;160429.69;;;16.54;35.75
41078;BME280;26823;42.662;23.352;2024-02-21T11:26:52;160121.34;;;15.36;36.22
41078;BME280;26823;42.662;23.352;2024-02-21T11:29:23;160052.41;;;15.10;37.55
41078;BME280;26823;42.662;23.352;2024-02-21T11:31:50;160001.09;;;14.90;35.91
41078;BME280;26823;42.662;23.352;2024-02-21T11:34:18;159990.28;;;14.86;37.19
41078;BME280;26823;42.662;23.352;2024-02-21T11:36:52;159875.38;;;14.42;37.12
41078;BME280;26823;42.662;23.352;2024-02-21T11:39:24;159847.03;;;14.31;39.48
41078;BME280;26823;42.662;23.352;2024-02-21T11:42:08;159786.22;;;14.08;38.24
41078;BME280;26823;42.662;23.352;2024-02-21T11:44:37;159720.06;;;13.83;38.81
41078;BME280;26823;42.662;23.352;2024-02-21T11:47:07;159628.28;;;13.48;41.09
41078;BME280;26823;42.662;23.352;2024-02-21T11:49:37;159601.25;;;13.37;39.60
41078;BME280;26823;42.662;23.352;2024-02-21T11:52:04;159591.78;;;13.34;39.80
41078;BME280;26823;42.662;23.352;2024-02-21T11:54:33;159541.84;;;13.15;40.72
41078;BME280;26823;42.662;23.352;2024-02-21T11:57:00;159370.44;;;12.49;41.26
41078;BME280;26823;42.662;23.352;2024-02-21T11:59:26;159412.25;;;12.65;41.69
41078;BME280;26823;42.662;23.352;2024-02-21T12:01:52;159336.72;;;12.36;41.99
41078;BME280;26823;42.662;23.352;2024-02-21T12:04:18;159346.13;;;12.40;41.49
41078;BME280;26823;42.662;23.352;2024-02-21T12:06:49;159315.13;;;12.28;41.67
41078;BME280;26823;42.662;23.352;2024-02-21T12:09:16;159304.34;;;12.24;42.45
41078;BME280;26823;42.662;23.352;2024-02-21T12:11:41;159265.22;;;12.09;42.77
41078;BME280;26823;42.662;23.352;2024-02-21T12:14:07;159254.44;;;12.05;43.41
41078;BME280;26823;42.662;23.352;2024-02-21T12:16:34;159216.59;;;11.90;42.96
41078;BME280;26823;42.662;23.352;2024-02-21T12:19:00;159195.03;;;11.82;43.91
41078;BME280;26823;42.662;23.352;2024-02-21T12:21:29;159211.22;;;11.88;45.33
41078;BME280;26823;42.662;23.352;2024-02-21T12:23:55;159238.25;;;11.99;44.32
41078;BME280;26823;42.662;23.352;2024-02-21T12:26:21;159184.28;;;11.78;44.22
41078;BME280;26823;42.662;23.352;2024-02-21T12:28:47;159195.03;;;11.82;45.55
41078;BME280;26823;42.662;23.352;2024-02-21T12:31:13;159130.28;;;11.57;45.00
41078;BME280;26823;42.662;23.352;2024-02-21T12:33:38;159120.84;;;11.54;45.83
41078;BME280;26823;42.662;23.352;2024-02-21T12:36:04;159102.00;;;11.47;44.86
41078;BME280;26823;42.662;23.352;2024-02-21T12:38:29;159048.06;;;11.26;46.28
41078;BME280;26823;42.662;23.352;2024-02-21T12:40:55;159006.28;;;11.10;45.90
41078;BME280;26823;42.662;23.352;2024-02-21T12:43:22;158947.00;;;10.87;46.11
41078;BME280;26823;42.662;23.352;2024-02-21T12:45:48;158907.91;;;10.72;47.35
41078;BME280;26823;42.662;23.352;2024-02-21T12:48:14;158905.19;;;10.71;48.19
41078;BME280;26823;42.662;23.352;2024-02-21T12:50:41;158878.25;;;10.61;48.90
41078;BME280;26823;42.662;23.352;2024-02-21T12:53:13;158837.84;;;10.46;48.06
41078;BME280;26823;42.662;23.352;2024-02-21T12:55:38;158828.41;;;10.42;48.65